createdAt,value
2023-04-18T00:01:55.155Z,15.32
2023-04-18T00:04:27.140Z,14.52
2023-04-18T00:06:54.155Z,14.35
2023-04-18T00:09:21.980Z,13.82
2023-04-18T00:11:51.100Z,13.85
2023-04-18T00:14:17.560Z,13.10
2023-04-18T00:16:44.097Z,13.43
2023-04-18T00:19:10.441Z,13.90
2023-04-18T00:21:37.637Z,14.45
2023-04-18T00:24:04.545Z,13.73
2023-04-18T00:26:31.244Z,13.48
2023-04-18T00:28:57.666Z,12.93
2023-04-18T00:31:24.258Z,14.95
2023-04-18T00:33:50.965Z,13.63
2023-04-18T00:36:17.306Z,13.15
2023-04-18T00:38:43.785Z,14.45
2023-04-18T00:41:10.175Z,14.07
2023-04-18T00:43:36.492Z,13.98
2023-04-18T00:46:03.144Z,14.00
2023-04-18T00:48:30.720Z,13.13
2023-04-18T00:50:57.280Z,12.95
2023-04-18T00:53:24.052Z,13.60
2023-04-18T00:55:53.250Z,12.95
2023-04-18T00:58:20.315Z,13.20
2023-04-18T01:00:46.901Z,13.05
2023-04-18T01:03:13.409Z,13.40
2023-04-18T01:05:40.678Z,12.73
2023-04-18T01:08:07.133Z,14.30
2023-04-18T01:10:33.820Z,13.15
2023-04-18T01:13:15.012Z,12.95
2023-04-18T01:15:43.190Z,12.77
2023-04-18T01:18:10.523Z,14.40
2023-04-18T01:20:39.523Z,13.88
2023-04-18T01:23:06.193Z,12.27
2023-04-18T01:25:33.043Z,13.57
2023-04-18T01:27:59.852Z,12.27
2023-04-18T01:30:26.363Z,11.52
2023-04-18T01:32:55.787Z,11.80
2023-04-18T01:35:22.198Z,13.15
2023-04-18T01:37:48.593Z,10.88
2023-04-18T01:40:15.246Z,12.45
2023-04-18T01:42:41.902Z,10.68
2023-04-18T01:45:08.396Z,11.40
2023-04-18T01:47:34.820Z,11.30
2023-04-18T01:50:02.598Z,11.05
2023-04-18T01:52:28.944Z,11.65
2023-04-18T01:54:55.318Z,12.45
2023-04-18T01:57:21.715Z,11.85
2023-04-18T01:59:48.024Z,10.90
2023-04-18T02:02:14.476Z,11.23
2023-04-18T02:04:41.022Z,11.45
2023-04-18T02:07:07.389Z,11.68
2023-04-18T02:09:33.935Z,10.60
2023-04-18T02:12:01.887Z,11.07
2023-04-18T02:14:31.239Z,10.45
2023-04-18T02:16:58.511Z,10.52
2023-04-18T02:19:25.054Z,12.52
2023-04-18T02:21:53.864Z,12.00
2023-04-18T02:24:20.333Z,11.48
2023-04-18T02:26:46.981Z,10.38
2023-04-18T02:29:13.572Z,10.50
2023-04-18T02:31:41.434Z,12.30
2023-04-18T02:34:08.235Z,11.05
2023-04-18T02:36:34.587Z,10.82
2023-04-18T02:39:00.985Z,11.40
2023-04-18T02:41:27.335Z,11.65
2023-04-18T02:43:53.696Z,11.25
2023-04-18T02:46:20.469Z,11.57
2023-04-18T02:48:46.961Z,11.18
2023-04-18T02:51:13.417Z,11.05
2023-04-18T02:53:40.072Z,10.95
2023-04-18T02:56:07.063Z,11.73
2023-04-18T02:58:33.368Z,11.20
2023-04-18T03:00:59.949Z,11.30
2023-04-18T03:03:26.729Z,11.40
2023-04-18T03:05:53.448Z,11.02
2023-04-18T03:08:20.109Z,11.48
2023-04-18T03:10:46.516Z,12.15
2023-04-18T03:13:12.955Z,11.48
2023-04-18T03:15:39.383Z,11.70
2023-04-18T03:18:06.003Z,11.50
2023-04-18T03:20:32.634Z,11.00
2023-04-18T03:22:59.316Z,10.95
2023-04-18T03:25:25.764Z,11.35
2023-04-18T03:27:52.220Z,12.20
2023-04-18T03:30:18.718Z,11.45
2023-04-18T03:32:46.115Z,11.65
2023-04-18T03:35:12.600Z,11.40
2023-04-18T03:37:38.961Z,11.80
2023-04-18T03:40:06.166Z,11.82
2023-04-18T03:42:32.879Z,11.52
2023-04-18T03:44:59.881Z,11.18
2023-04-18T03:47:26.682Z,12.25
2023-04-18T03:49:53.505Z,11.82
2023-04-18T03:52:20.047Z,11.20
2023-04-18T03:54:46.840Z,11.80
2023-04-18T03:57:13.516Z,12.80
2023-04-18T03:59:39.927Z,12.45
2023-04-18T04:02:06.520Z,12.82
2023-04-18T04:04:33.307Z,11.65
2023-04-18T04:07:00.161Z,12.27
2023-04-18T04:09:26.868Z,13.55
2023-04-18T04:11:53.216Z,12.32
2023-04-18T04:14:19.934Z,12.10
2023-04-18T04:16:46.655Z,11.40
2023-04-18T04:19:13.194Z,12.75
2023-04-18T04:21:39.901Z,12.07
2023-04-18T04:24:06.608Z,12.52
2023-04-18T04:26:34.435Z,14.27
2023-04-18T04:29:01.243Z,13.55
2023-04-18T04:31:27.810Z,13.40
2023-04-18T04:33:54.559Z,12.63
2023-04-18T04:36:20.961Z,12.48
2023-04-18T04:38:47.396Z,12.05
2023-04-18T04:41:13.909Z,13.43
2023-04-18T04:43:40.378Z,12.90
2023-04-18T04:46:07.180Z,11.88
2023-04-18T04:48:33.941Z,12.80
2023-04-18T04:51:01.214Z,12.57
2023-04-18T04:53:29.150Z,12.98
2023-04-18T04:55:55.728Z,12.50
2023-04-18T04:58:22.197Z,13.50
2023-04-18T05:00:48.587Z,13.55
2023-04-18T05:03:17.370Z,12.63
2023-04-18T05:05:43.972Z,13.55
2023-04-18T05:08:10.378Z,14.20
2023-04-18T05:10:36.856Z,12.80
2023-04-18T05:13:04.466Z,12.80
2023-04-18T05:15:31.537Z,13.63
2023-04-18T05:17:58.369Z,13.00
2023-04-18T05:20:24.957Z,12.88
2023-04-18T05:22:51.369Z,12.90
2023-04-18T05:25:18.027Z,12.80
2023-04-18T05:27:45.793Z,12.98
2023-04-18T05:30:12.684Z,12.50
2023-04-18T05:32:39.421Z,14.65
2023-04-18T05:35:07.411Z,13.77
2023-04-18T05:37:34.114Z,13.68
2023-04-18T05:40:00.904Z,13.68
2023-04-18T05:42:27.938Z,12.73
2023-04-18T05:44:54.528Z,12.75
2023-04-18T05:47:21.142Z,13.93
2023-04-18T05:49:47.725Z,13.23
2023-04-18T05:52:14.194Z,13.95
2023-04-18T05:54:40.578Z,13.95
2023-04-18T05:57:07.325Z,12.98
2023-04-18T05:59:33.683Z,13.07
2023-04-18T06:02:00.328Z,14.00
2023-04-18T06:04:27.364Z,14.23
2023-04-18T06:06:53.992Z,13.15
2023-04-18T06:09:20.453Z,14.05
2023-04-18T06:11:46.973Z,15.73
2023-04-18T06:14:13.671Z,13.88
2023-04-18T06:16:41.180Z,13.25
2023-04-18T06:19:08.000Z,15.18
2023-04-18T06:21:34.448Z,13.15
2023-04-18T06:24:00.963Z,13.02
2023-04-18T06:26:27.417Z,13.23
2023-04-18T06:28:54.117Z,13.10
2023-04-18T06:31:20.522Z,13.10
2023-04-18T06:33:47.003Z,12.25
2023-04-18T06:36:13.545Z,13.27
2023-04-18T06:38:39.964Z,12.27
2023-04-18T06:41:06.733Z,12.13
2023-04-18T06:43:33.143Z,14.10
2023-04-18T06:45:59.766Z,13.23
2023-04-18T06:48:26.500Z,14.95
2023-04-18T06:50:53.265Z,12.77
2023-04-18T06:53:19.948Z,14.45
2023-04-18T06:55:46.379Z,13.20
2023-04-18T06:58:13.976Z,13.18
2023-04-18T07:00:40.407Z,13.82
2023-04-18T07:03:08.090Z,12.98
2023-04-18T07:05:36.761Z,13.18
2023-04-18T07:08:03.395Z,12.82
2023-04-18T07:10:30.219Z,13.00
2023-04-18T07:12:56.881Z,13.55
2023-04-18T07:15:23.503Z,12.88
2023-04-18T07:17:50.284Z,13.32
2023-04-18T07:20:17.054Z,13.48
2023-04-18T07:22:43.520Z,14.07
2023-04-18T07:25:09.982Z,14.63
2023-04-18T07:27:37.406Z,12.55
2023-04-18T07:30:04.826Z,13.68
2023-04-18T07:32:31.222Z,13.50
2023-04-18T07:34:57.920Z,13.98
2023-04-18T07:37:25.743Z,14.43
2023-04-18T07:39:52.317Z,14.07
2023-04-18T07:42:19.004Z,13.63
2023-04-18T07:44:45.452Z,12.50
2023-04-18T07:47:12.210Z,14.00
2023-04-18T07:49:39.104Z,15.68
2023-04-18T07:52:05.685Z,15.48
2023-04-18T07:54:32.256Z,14.32
2023-04-18T07:56:59.330Z,13.98
2023-04-18T07:59:25.833Z,15.25
2023-04-18T08:01:52.240Z,15.48
2023-04-18T08:04:18.984Z,15.60
2023-04-18T08:06:45.875Z,15.00
2023-04-18T08:09:12.373Z,13.75
2023-04-18T08:11:39.244Z,14.27
2023-04-18T08:14:05.831Z,14.70
2023-04-18T08:16:32.290Z,13.63
2023-04-18T08:18:59.240Z,13.50
2023-04-18T08:21:25.718Z,13.48
2023-04-18T08:23:52.280Z,13.55
2023-04-18T08:26:18.755Z,13.45
2023-04-18T08:28:46.528Z,13.85
2023-04-18T08:31:15.405Z,13.65
2023-04-18T08:33:42.222Z,14.48
2023-04-18T08:36:09.574Z,14.73
2023-04-18T08:38:36.061Z,14.02
2023-04-18T08:41:02.603Z,14.98
2023-04-18T08:43:29.400Z,15.23
2023-04-18T08:45:59.407Z,14.10
2023-04-18T08:48:26.181Z,15.20
2023-04-18T08:50:57.168Z,14.43
2023-04-18T08:53:23.564Z,14.27
2023-04-18T08:55:57.023Z,13.85
2023-04-18T08:58:23.996Z,14.35
2023-04-18T09:00:54.630Z,14.10
2023-04-18T09:03:39.416Z,13.52
2023-04-18T09:06:17.143Z,13.77
2023-04-18T09:08:55.934Z,12.98
2023-04-18T09:11:23.747Z,14.02
2023-04-18T09:13:50.164Z,14.35
2023-04-18T09:16:18.214Z,15.73
2023-04-18T09:19:08.645Z,15.43
2023-04-18T09:21:36.477Z,12.50
2023-04-18T09:24:16.796Z,15.13
2023-04-18T09:26:43.312Z,13.30
2023-04-18T09:29:09.804Z,13.75
2023-04-18T09:32:01.492Z,13.45
2023-04-18T09:34:29.213Z,13.98
2023-04-18T09:37:10.377Z,14.18
2023-04-18T09:39:43.406Z,13.93
2023-04-18T09:42:10.883Z,13.70
2023-04-18T09:44:38.223Z,13.68
2023-04-18T09:47:07.073Z,13.15
2023-04-18T09:49:33.898Z,13.23
2023-04-18T09:52:06.232Z,12.23
2023-04-18T09:54:33.370Z,11.60
2023-04-18T09:57:02.659Z,12.05
2023-04-18T09:59:37.524Z,11.98
2023-04-18T10:02:08.664Z,12.70
2023-04-18T10:04:35.582Z,11.90
2023-04-18T10:07:02.833Z,11.02
2023-04-18T10:09:32.846Z,11.98
2023-04-18T10:12:00.862Z,11.45
2023-04-18T10:14:28.514Z,10.57
2023-04-18T10:16:57.685Z,10.52
2023-04-18T10:19:26.425Z,11.10
2023-04-18T10:21:58.357Z,10.25
2023-04-18T10:24:50.685Z,10.18
2023-04-18T10:27:17.749Z,10.50
2023-04-18T10:29:48.850Z,10.75
2023-04-18T10:32:17.079Z,10.45
2023-04-18T10:34:44.262Z,10.38
2023-04-18T10:37:10.997Z,9.63
2023-04-18T10:39:58.740Z,9.73
2023-04-18T10:42:46.741Z,9.27
2023-04-18T10:45:24.724Z,9.63
2023-04-18T10:48:11.259Z,10.27
2023-04-18T10:51:16.926Z,9.60
2023-04-18T10:53:48.793Z,8.93
2023-04-18T10:56:15.336Z,8.07
2023-04-18T10:58:44.094Z,9.20
2023-04-18T11:01:14.489Z,8.15
2023-04-18T11:03:41.388Z,8.93
2023-04-18T11:06:08.206Z,8.75
2023-04-18T11:08:34.932Z,8.70
2023-04-18T11:11:01.699Z,7.70
2023-04-18T11:13:28.932Z,8.25
2023-04-18T11:15:55.657Z,8.18
2023-04-18T11:18:22.520Z,7.57
2023-04-18T11:20:51.375Z,9.10
2023-04-18T11:23:20.395Z,7.05
2023-04-18T11:25:48.754Z,8.02
2023-04-18T11:28:19.939Z,6.88
2023-04-18T11:30:46.772Z,6.88
2023-04-18T11:33:14.323Z,6.38
2023-04-18T11:35:43.614Z,7.40
2023-04-18T11:38:12.618Z,6.57
2023-04-18T11:40:39.365Z,6.32
2023-04-18T11:43:07.592Z,6.82
2023-04-18T11:45:34.160Z,6.60
2023-04-18T11:48:01.070Z,6.70
2023-04-18T11:50:36.209Z,5.32
2023-04-18T11:53:02.736Z,6.60
2023-04-18T11:55:29.297Z,5.93
2023-04-18T11:58:00.410Z,7.18
2023-04-18T12:00:45.205Z,5.80
2023-04-18T12:03:17.113Z,6.93
2023-04-18T12:05:44.343Z,6.53
2023-04-18T12:08:19.463Z,6.63
2023-04-18T12:10:50.912Z,7.50
2023-04-18T12:13:17.987Z,7.03
2023-04-18T12:15:46.433Z,7.47
2023-04-18T12:18:14.438Z,7.20
2023-04-18T12:20:44.901Z,6.75
2023-04-18T12:23:30.450Z,7.13
2023-04-18T12:26:07.882Z,6.35
2023-04-18T12:28:35.374Z,7.10
2023-04-18T12:31:02.159Z,6.97
2023-04-18T12:33:28.688Z,7.03
2023-04-18T12:35:55.018Z,7.28
2023-04-18T12:38:22.733Z,6.22
2023-04-18T12:40:51.011Z,6.85
2023-04-18T12:43:18.541Z,6.05
2023-04-18T12:45:49.435Z,6.25
2023-04-18T12:48:15.967Z,5.63
2023-04-18T12:50:42.376Z,6.07
2023-04-18T12:53:09.206Z,5.60
2023-04-18T12:55:36.126Z,6.95
2023-04-18T12:58:02.821Z,5.93
2023-04-18T13:00:31.635Z,6.25
2023-04-18T13:02:58.870Z,6.20
2023-04-18T13:05:28.671Z,6.80
2023-04-18T13:08:08.506Z,5.68
2023-04-18T13:10:40.062Z,5.82
2023-04-18T13:13:06.585Z,5.10
2023-04-18T13:15:34.377Z,4.45
2023-04-18T13:18:04.979Z,5.97
2023-04-18T13:20:32.491Z,5.82
2023-04-18T13:22:59.969Z,5.65
2023-04-18T13:25:28.475Z,5.47
2023-04-18T13:27:55.540Z,5.38
2023-04-18T13:30:22.096Z,5.57
2023-04-18T13:32:48.484Z,5.82
2023-04-18T13:35:14.892Z,5.40
2023-04-18T13:37:41.694Z,5.43
2023-04-18T13:40:08.451Z,4.80
2023-04-18T13:42:36.541Z,5.22
2023-04-18T13:45:03.501Z,5.35
2023-04-18T13:47:30.634Z,5.10
2023-04-18T13:49:57.107Z,5.63
2023-04-18T13:52:23.786Z,5.00
2023-04-18T13:54:50.638Z,5.57
2023-04-18T13:57:17.541Z,5.28
2023-04-18T13:59:47.086Z,4.97
2023-04-18T14:02:13.980Z,5.65
2023-04-18T14:04:41.098Z,5.20
2023-04-18T14:07:08.337Z,5.13
2023-04-18T14:09:34.935Z,5.47
2023-04-18T14:12:01.596Z,5.70
2023-04-18T14:14:28.171Z,5.32
2023-04-18T14:16:54.814Z,5.35
2023-04-18T14:19:21.364Z,5.57
2023-04-18T14:21:47.994Z,6.57
2023-04-18T14:24:15.351Z,5.68
2023-04-18T14:26:42.529Z,5.88
2023-04-18T14:29:09.074Z,6.25
2023-04-18T14:31:35.605Z,5.75
2023-04-18T14:34:02.245Z,5.75
2023-04-18T14:36:28.890Z,5.93
2023-04-18T14:38:55.525Z,5.82
2023-04-18T14:41:22.243Z,6.10
2023-04-18T14:43:48.853Z,7.30
2023-04-18T14:46:15.726Z,5.60
2023-04-18T14:48:44.585Z,5.40
2023-04-18T14:51:11.260Z,5.57
2023-04-18T14:53:38.046Z,5.25
2023-04-18T14:56:04.857Z,5.57
2023-04-18T14:58:31.240Z,4.70
2023-04-18T15:00:57.694Z,5.00
2023-04-18T15:03:24.518Z,5.78
2023-04-18T15:05:51.494Z,5.07
2023-04-18T15:08:18.814Z,5.78
2023-04-18T15:10:45.561Z,5.72
2023-04-18T15:13:12.002Z,5.93
2023-04-18T15:15:38.872Z,5.90
2023-04-18T15:18:06.970Z,5.18
2023-04-18T15:20:33.455Z,5.07
2023-04-18T15:23:00.886Z,5.80
2023-04-18T15:25:27.455Z,5.57
2023-04-18T15:27:54.478Z,5.22
2023-04-18T15:30:21.270Z,4.35
2023-04-18T15:32:48.170Z,4.95
2023-04-18T15:35:15.310Z,4.78
2023-04-18T15:37:44.273Z,4.68
2023-04-18T15:40:11.414Z,4.43
2023-04-18T15:42:39.626Z,4.43
2023-04-18T15:45:06.741Z,4.75
2023-04-18T15:47:34.465Z,4.50
2023-04-18T15:50:00.950Z,4.80
2023-04-18T15:52:30.082Z,4.43
2023-04-18T15:54:57.451Z,4.55
2023-04-18T15:57:23.947Z,4.15
2023-04-18T15:59:50.267Z,4.45
2023-04-18T16:02:16.841Z,5.00
2023-04-18T16:04:43.639Z,4.60
2023-04-18T16:07:11.131Z,5.15
2023-04-18T16:09:37.648Z,4.95
2023-04-18T16:12:04.346Z,5.22
2023-04-18T16:14:31.126Z,5.07
2023-04-18T16:17:00.256Z,5.00
2023-04-18T16:19:26.664Z,5.90
2023-04-18T16:21:53.340Z,5.57
2023-04-18T16:24:19.820Z,6.82
2023-04-18T16:26:46.247Z,5.50
2023-04-18T16:29:12.698Z,5.63
2023-04-18T16:31:39.168Z,5.57
2023-04-18T16:34:05.774Z,5.60
2023-04-18T16:36:35.375Z,6.13
2023-04-18T16:39:01.888Z,5.70
2023-04-18T16:41:28.376Z,6.32
2023-04-18T16:43:54.781Z,6.15
2023-04-18T16:46:21.595Z,6.07
2023-04-18T16:48:48.593Z,6.18
2023-04-18T16:51:15.865Z,6.32
2023-04-18T16:53:42.979Z,6.72
2023-04-18T16:56:09.543Z,7.00
2023-04-18T16:58:36.052Z,6.20
2023-04-18T17:01:02.494Z,7.13
2023-04-18T17:03:29.120Z,6.97
2023-04-18T17:05:55.727Z,7.35
2023-04-18T17:08:22.435Z,7.00
2023-04-18T17:10:51.971Z,6.70
2023-04-18T17:13:18.750Z,6.75
2023-04-18T17:15:45.112Z,7.60
2023-04-18T17:18:11.972Z,7.43
2023-04-18T17:20:38.477Z,6.88
2023-04-18T17:23:04.971Z,6.53
2023-04-18T17:25:31.353Z,6.63
2023-04-18T17:27:57.866Z,7.22
2023-04-18T17:30:24.333Z,6.97
2023-04-18T17:32:50.807Z,7.22
2023-04-18T17:35:17.444Z,6.43
2023-04-18T17:37:44.235Z,7.35
2023-04-18T17:40:11.185Z,7.10
2023-04-18T17:42:37.970Z,6.57
2023-04-18T17:45:08.836Z,7.22
2023-04-18T17:47:35.899Z,6.93
2023-04-18T17:50:05.995Z,6.80
2023-04-18T17:52:32.852Z,6.80
2023-04-18T17:55:00.062Z,7.95
2023-04-18T17:57:26.534Z,6.32
2023-04-18T17:59:53.919Z,6.47
2023-04-18T18:02:20.542Z,6.50
2023-04-18T18:04:47.211Z,6.68
2023-04-18T18:07:13.707Z,6.18
2023-04-18T18:09:40.453Z,5.97
2023-04-18T18:12:07.454Z,6.25
2023-04-18T18:14:33.802Z,6.60
2023-04-18T18:17:00.283Z,7.07
2023-04-18T18:19:26.726Z,6.28
2023-04-18T18:21:53.307Z,6.22
2023-04-18T18:24:19.774Z,6.38
2023-04-18T18:26:46.267Z,6.55
2023-04-18T18:29:13.348Z,6.20
2023-04-18T18:31:41.222Z,6.45
2023-04-18T18:34:07.827Z,6.68
2023-04-18T18:36:34.859Z,6.88
2023-04-18T18:39:01.535Z,7.82
2023-04-18T18:41:29.239Z,7.32
2023-04-18T18:43:55.875Z,6.82
2023-04-18T18:46:22.479Z,6.95
2023-04-18T18:48:48.888Z,8.15
2023-04-18T18:51:17.880Z,7.50
2023-04-18T18:53:44.743Z,7.25
2023-04-18T18:56:11.810Z,7.10
2023-04-18T18:58:38.604Z,7.05
2023-04-18T19:01:05.655Z,6.85
2023-04-18T19:03:32.329Z,6.88
2023-04-18T19:05:58.726Z,6.88
2023-04-18T19:08:25.573Z,6.57
2023-04-18T19:10:52.316Z,7.28
2023-04-18T19:13:21.685Z,6.93
2023-04-18T19:15:48.542Z,6.68
2023-04-18T19:18:15.357Z,7.70
2023-04-18T19:20:42.002Z,7.20
2023-04-18T19:23:08.443Z,7.70
2023-04-18T19:25:37.346Z,8.55
2023-04-18T19:28:04.154Z,8.15
2023-04-18T19:30:30.589Z,7.00
2023-04-18T19:32:58.398Z,8.10
2023-04-18T19:35:25.020Z,7.55
2023-04-18T19:37:51.770Z,7.65
2023-04-18T19:40:18.262Z,8.23
2023-04-18T19:42:45.079Z,8.00
2023-04-18T19:45:13.181Z,7.93
2023-04-18T19:47:39.962Z,8.10
2023-04-18T19:50:07.187Z,7.78
2023-04-18T19:52:33.624Z,7.88
2023-04-18T19:55:04.170Z,8.35
2023-04-18T19:57:30.616Z,8.23
2023-04-18T19:59:57.939Z,8.07
2023-04-18T20:02:25.412Z,7.53
2023-04-18T20:04:52.342Z,8.05
2023-04-18T20:07:20.485Z,8.05
2023-04-18T20:09:55.195Z,9.35
2023-04-18T20:12:22.218Z,8.23
2023-04-18T20:14:48.909Z,9.82
2023-04-18T20:17:15.689Z,9.23
2023-04-18T20:19:42.206Z,8.82
2023-04-18T20:22:08.849Z,9.32
2023-04-18T20:24:35.216Z,9.35
2023-04-18T20:27:02.319Z,9.00
2023-04-18T20:29:28.674Z,9.02
2023-04-18T20:31:55.063Z,9.30
2023-04-18T20:34:21.786Z,7.78
2023-04-18T20:36:48.408Z,8.55
2023-04-18T20:39:15.901Z,10.13
2023-04-18T20:41:42.954Z,8.68
2023-04-18T20:44:09.341Z,9.60
2023-04-18T20:46:35.659Z,9.65
2023-04-18T20:49:02.080Z,9.43
2023-04-18T20:51:28.476Z,10.65
2023-04-18T20:53:54.878Z,8.77
2023-04-18T20:56:21.286Z,10.10
2023-04-18T20:58:48.055Z,8.70
2023-04-18T21:01:14.498Z,9.05
2023-04-18T21:03:42.288Z,9.43
2023-04-18T21:06:09.606Z,9.35
2023-04-18T21:08:36.028Z,9.00
2023-04-18T21:11:02.473Z,9.40
2023-04-18T21:13:28.973Z,9.73
2023-04-18T21:15:56.027Z,9.65
2023-04-18T21:18:23.276Z,8.65
2023-04-18T21:20:50.271Z,8.93
2023-04-18T21:23:16.747Z,8.63
2023-04-18T21:25:43.104Z,8.85
2023-04-18T21:28:09.650Z,9.50
2023-04-18T21:30:36.093Z,9.10
2023-04-18T21:33:05.490Z,9.60
2023-04-18T21:35:31.905Z,9.70
2023-04-18T21:37:58.378Z,9.57
2023-04-18T21:40:25.458Z,9.38
2023-04-18T21:42:53.422Z,9.55
2023-04-18T21:45:19.780Z,10.88
2023-04-18T21:47:46.132Z,9.52
2023-04-18T21:50:13.552Z,9.48
2023-04-18T21:52:39.995Z,10.32
2023-04-18T21:55:06.568Z,10.40
2023-04-18T21:57:33.309Z,9.23
2023-04-18T22:00:02.088Z,10.60
2023-04-18T22:02:30.089Z,10.18
2023-04-18T22:04:56.925Z,9.32
2023-04-18T22:07:23.451Z,9.48
2023-04-18T22:09:50.241Z,9.65
2023-04-18T22:12:16.872Z,9.88
2023-04-18T22:14:43.484Z,9.60
2023-04-18T22:17:09.889Z,9.63
2023-04-18T22:19:39.098Z,9.48
2023-04-18T22:22:05.730Z,8.75
2023-04-18T22:24:32.195Z,9.48
2023-04-18T22:26:58.846Z,9.20
2023-04-18T22:29:25.223Z,9.55
2023-04-18T22:31:51.591Z,9.45
2023-04-18T22:34:18.176Z,10.38
2023-04-18T22:36:45.278Z,9.48
2023-04-18T22:39:12.038Z,9.50
2023-04-18T22:41:40.880Z,8.77
2023-04-18T22:44:07.360Z,9.60
2023-04-18T22:46:34.194Z,9.95
2023-04-18T22:49:00.707Z,11.15
2023-04-18T22:51:27.043Z,10.30
2023-04-18T22:53:53.330Z,10.20
2023-04-18T22:56:19.729Z,9.77
2023-04-18T22:58:46.056Z,9.70
2023-04-18T23:01:13.192Z,9.90
2023-04-18T23:03:42.702Z,9.73
2023-04-18T23:06:09.531Z,10.38
2023-04-18T23:08:39.019Z,10.25
2023-04-18T23:11:05.505Z,10.65
2023-04-18T23:13:31.876Z,10.38
2023-04-18T23:15:58.278Z,10.02
2023-04-18T23:18:24.996Z,9.77
2023-04-18T23:20:51.437Z,10.05
2023-04-18T23:23:18.098Z,10.77
2023-04-18T23:25:44.487Z,10.85
2023-04-18T23:28:11.015Z,10.40
2023-04-18T23:30:37.759Z,10.98
2023-04-18T23:33:04.276Z,10.98
2023-04-18T23:35:31.461Z,10.43
2023-04-18T23:37:58.155Z,9.63
2023-04-18T23:40:24.750Z,10.35
2023-04-18T23:42:51.198Z,11.55
2023-04-18T23:45:17.705Z,10.57
2023-04-18T23:47:44.213Z,10.50
2023-04-18T23:50:10.919Z,11.50
2023-04-18T23:52:37.559Z,11.15
2023-04-18T23:55:04.432Z,11.23
2023-04-18T23:57:30.859Z,10.77
2023-04-18T23:59:57.274Z,11.00
